Orlando, Florida
Traffic Map
Current Weather Conditions
Orlando, Florida
Clear
Clear
31°
Feels Like: 36°
Wind Chill: 31° Ceiling: Unl
Heat Index: 36° Visibility: 10mi
Dew Point: 23° Wind: 3mph
Humidity: 63% Direction: ° ()
Pressure: 30.11in Gusts: 0mph
Raw Report DataKORL 031553Z VRB03KT 10SM CLR 31/23 A3011 RMK AO2 SLP199 T03110233
Traffic Incident Summary
Active as of:
Severity:
Category:
InformationThere was an issue retrieving the traffic information for this location. Please try a different location or try again shortly.
Advertisements
Track Severe Weather on mobile